createdAt,value
2023-02-16T00:07:10.258Z,102174.72
2023-02-16T00:17:13.623Z,102174.22
2023-02-16T00:27:19.119Z,102186.25
2023-02-16T00:37:22.105Z,102180.16
2023-02-16T00:47:33.603Z,102174.22
2023-02-16T00:57:40.095Z,102173.84
2023-02-16T01:08:02.164Z,102149.25
2023-02-16T01:18:05.222Z,102151.31
2023-02-16T01:28:19.333Z,102146.75
2023-02-16T01:38:24.617Z,102135.22
2023-02-16T01:48:30.732Z,102114.03
2023-02-16T01:58:41.056Z,102115.59
2023-02-16T02:08:55.704Z,102106.25
2023-02-16T02:19:01.835Z,102105.41
2023-02-16T02:29:19.443Z,102086.78
2023-02-16T02:39:34.293Z,102077.88
2023-02-16T02:49:39.300Z,102074.38
2023-02-16T03:00:08.699Z,102062.97
2023-02-16T03:10:30.913Z,102060.28
2023-02-16T03:20:52.748Z,102054.72
2023-02-16T03:30:58.035Z,102051.81
2023-02-16T03:41:01.313Z,102040.91
2023-02-16T03:51:06.036Z,102043.69
2023-02-16T04:01:09.497Z,102048.06
2023-02-16T04:11:31.039Z,102047.75
2023-02-16T04:21:34.011Z,102053.16
2023-02-16T04:31:38.484Z,102062.84
2023-02-16T04:41:41.765Z,102051.28
2023-02-16T04:51:46.193Z,102053.06
2023-02-16T05:01:49.535Z,102061.25
2023-02-16T05:12:11.254Z,102050.16
2023-02-16T05:22:14.843Z,102058.00
2023-02-16T05:32:19.439Z,102066.19
2023-02-16T05:42:22.442Z,102022.72
2023-02-16T05:52:27.199Z,102042.97
2023-02-16T06:02:30.226Z,102054.50
2023-02-16T06:12:34.654Z,102030.59
2023-02-16T06:22:37.660Z,102034.53
2023-02-16T06:32:42.000Z,102032.31
2023-02-16T06:42:45.417Z,102057.88
2023-02-16T06:52:49.735Z,102067.59
2023-02-16T07:02:53.056Z,102062.88
2023-02-16T07:12:57.459Z,102071.84
2023-02-16T07:23:00.661Z,102058.06
2023-02-16T07:33:06.653Z,102072.16
2023-02-16T07:43:10.684Z,102059.56
2023-02-16T07:53:15.038Z,102082.84
2023-02-16T08:03:18.335Z,102079.06
2023-02-16T08:13:23.099Z,102084.59
2023-02-16T08:23:26.460Z,102096.66
2023-02-16T08:33:31.578Z,102104.09
2023-02-16T08:43:34.794Z,102104.97
2023-02-16T08:53:39.174Z,102104.81
2023-02-16T09:03:44.772Z,102123.47
2023-02-16T09:13:49.499Z,102137.91
2023-02-16T09:23:54.742Z,102134.47
2023-02-16T09:34:02.640Z,102130.56
2023-02-16T09:44:18.700Z,102107.22
2023-02-16T09:54:40.614Z,102122.31
2023-02-16T10:04:50.394Z,102118.00
2023-02-16T10:14:59.509Z,102123.34
2023-02-16T10:25:06.102Z,102116.81
2023-02-16T10:35:17.441Z,102118.88
2023-02-16T10:45:27.397Z,102131.31
2023-02-16T10:55:31.800Z,102135.22
2023-02-16T11:05:38.452Z,102121.59
2023-02-16T11:15:42.962Z,102120.81
2023-02-16T11:25:56.566Z,102108.84
2023-02-16T11:36:05.377Z,102102.38
2023-02-16T11:46:16.919Z,102088.84
2023-02-16T11:56:28.442Z,102076.38
2023-02-16T12:06:55.535Z,102065.09
2023-02-16T12:17:14.117Z,102061.44
2023-02-16T12:27:22.453Z,102028.28
2023-02-16T12:37:35.142Z,102019.03
2023-02-16T12:47:48.121Z,102003.84
2023-02-16T12:58:01.845Z,101994.41
2023-02-16T13:08:15.973Z,101981.81
2023-02-16T13:18:23.283Z,101962.78
2023-02-16T13:28:43.182Z,101961.59
2023-02-16T13:39:16.213Z,101941.16
2023-02-16T13:49:33.687Z,101933.16
2023-02-16T13:59:55.584Z,101919.84
2023-02-16T14:10:00.106Z,101902.66
2023-02-16T14:20:07.207Z,101896.22
2023-02-16T14:30:22.508Z,101889.13
2023-02-16T14:40:48.486Z,101884.03
2023-02-16T14:51:18.072Z,101868.53
2023-02-16T15:01:25.872Z,101859.81
2023-02-16T15:11:34.116Z,101858.59
2023-02-16T15:21:37.384Z,101854.47
2023-02-16T15:31:41.931Z,101862.63
2023-02-16T15:41:48.467Z,101850.66
2023-02-16T15:51:55.330Z,101857.59
2023-02-16T16:02:01.106Z,101839.19
2023-02-16T16:12:08.404Z,101852.38
2023-02-16T16:22:30.866Z,101868.22
2023-02-16T16:32:35.661Z,101862.28
2023-02-16T16:42:40.130Z,101857.81
2023-02-16T16:52:47.056Z,101853.22
2023-02-16T17:02:50.351Z,101856.53
2023-02-16T17:12:57.644Z,101863.28
2023-02-16T17:23:04.890Z,101850.47
2023-02-16T17:33:10.018Z,101830.25
2023-02-16T17:43:14.716Z,101846.19
2023-02-16T17:53:21.428Z,101827.50
2023-02-16T18:03:25.140Z,101833.22
2023-02-16T18:13:30.236Z,101830.88
2023-02-16T18:23:33.866Z,101836.00
2023-02-16T18:33:38.289Z,101832.06
2023-02-16T18:43:41.635Z,101822.00
2023-02-16T18:53:46.454Z,101805.13
2023-02-16T19:03:49.812Z,101805.69
2023-02-16T19:13:54.316Z,101802.63
2023-02-16T19:23:57.758Z,101805.00
2023-02-16T19:34:02.776Z,101799.59
2023-02-16T19:44:06.149Z,101812.41
2023-02-16T19:54:10.867Z,101809.38
2023-02-16T20:04:14.020Z,101805.19
2023-02-16T20:14:18.887Z,101806.69
2023-02-16T20:24:22.140Z,101792.28
2023-02-16T20:34:28.109Z,101808.25
2023-02-16T20:44:31.376Z,101792.28
2023-02-16T20:54:35.852Z,101786.81
2023-02-16T21:04:38.994Z,101770.38
2023-02-16T21:14:43.711Z,101774.28
2023-02-16T21:24:46.922Z,101780.41
2023-02-16T21:34:51.564Z,101779.97
2023-02-16T21:45:12.700Z,101774.91
2023-02-16T21:55:34.981Z,101774.34
2023-02-16T22:05:38.288Z,101763.38
2023-02-16T22:15:44.803Z,101764.94
2023-02-16T22:25:47.841Z,101740.69
2023-02-16T22:35:52.172Z,101746.84
2023-02-16T22:45:55.343Z,101751.94
2023-02-16T22:56:00.418Z,101753.38
2023-02-16T23:06:12.337Z,101761.19
2023-02-16T23:16:18.660Z,101759.25
2023-02-16T23:26:23.184Z,101770.00
2023-02-16T23:36:27.752Z,101773.84
2023-02-16T23:46:30.802Z,101769.88
2023-02-16T23:56:35.224Z,101746.03
